Terminal Aerodrome Forecast
Issued by NWS

Home | Current Version | Previous Version | Text Only | Print | Product List | Glossary On
Versions: 1 2 3 4 5 6 7 8 9 10 11 12 13 14 15 16 17 18 19 20 21 22
454
FTUS43 KILX 100525
TAFDEC
TAF
KDEC 100525Z 1006/1106 31012G20KT P6SM OVC035
     FM100900 31010KT P6SM SKC
     FM101700 29009KT P6SM SCT025 BKN200
     FM110000 VRB03KT P6SM BKN060=

USA.gov is the U.S. government's official web portal to all federal, state and local government web resources and services.